createdAt,value
2023-03-16T00:01:23.323Z,24.40
2023-03-16T00:03:51.151Z,24.40
2023-03-16T00:06:18.755Z,24.40
2023-03-16T00:08:48.528Z,24.50
2023-03-16T00:11:16.390Z,24.50
2023-03-16T00:13:44.086Z,24.50
2023-03-16T00:16:13.895Z,24.50
2023-03-16T00:18:41.593Z,24.60
2023-03-16T00:21:09.205Z,24.60
2023-03-16T00:23:39.619Z,24.70
2023-03-16T00:26:07.308Z,24.70
2023-03-16T00:28:34.886Z,24.70
2023-03-16T00:31:04.656Z,24.70
2023-03-16T00:33:32.464Z,24.80
2023-03-16T00:36:00.660Z,24.80
2023-03-16T00:38:28.408Z,24.80
2023-03-16T00:40:55.915Z,24.80
2023-03-16T00:43:23.649Z,24.80
2023-03-16T00:45:53.360Z,24.80
2023-03-16T00:48:22.012Z,24.90
2023-03-16T00:50:51.581Z,24.90
2023-03-16T00:53:22.049Z,25.00
2023-03-16T00:55:52.368Z,25.10
2023-03-16T00:58:20.023Z,25.00
2023-03-16T01:00:49.763Z,25.10
2023-03-16T01:03:17.529Z,25.10
2023-03-16T01:05:45.755Z,25.10
2023-03-16T01:08:17.665Z,25.20
2023-03-16T01:10:45.483Z,25.20
2023-03-16T01:13:13.089Z,25.20
2023-03-16T01:15:41.850Z,25.30
2023-03-16T01:18:09.726Z,25.30
2023-03-16T01:20:37.254Z,25.40
2023-03-16T01:23:06.116Z,25.40
2023-03-16T01:25:33.879Z,25.40
2023-03-16T01:28:01.509Z,25.40
2023-03-16T01:30:31.311Z,25.50
2023-03-16T01:32:59.187Z,25.50
2023-03-16T01:35:26.799Z,25.60
2023-03-16T01:37:56.918Z,25.70
2023-03-16T01:40:24.660Z,25.70
2023-03-16T01:42:52.258Z,25.80
2023-03-16T01:45:22.054Z,25.80
2023-03-16T01:47:49.781Z,25.80
2023-03-16T01:50:17.328Z,25.80
2023-03-16T01:52:47.199Z,25.80
2023-03-16T01:55:15.029Z,25.90
2023-03-16T01:57:42.787Z,25.90
2023-03-16T02:00:12.695Z,26.00
2023-03-16T02:02:40.237Z,26.00
2023-03-16T02:05:07.990Z,26.00
2023-03-16T02:07:36.847Z,26.10
2023-03-16T02:10:04.482Z,26.10
2023-03-16T02:12:31.981Z,26.20
2023-03-16T02:14:59.666Z,26.30
2023-03-16T02:17:27.254Z,26.30
2023-03-16T02:19:54.844Z,26.40
2023-03-16T02:22:24.630Z,26.40
2023-03-16T02:24:52.608Z,26.50
2023-03-16T02:27:20.748Z,26.50
2023-03-16T02:29:50.562Z,26.50
2023-03-16T02:32:18.127Z,26.50
2023-03-16T02:34:45.801Z,26.60
2023-03-16T02:37:15.515Z,26.60
2023-03-16T02:39:43.272Z,26.70
2023-03-16T02:42:11.443Z,26.70
2023-03-16T02:44:39.314Z,26.80
2023-03-16T02:47:06.887Z,26.90
2023-03-16T02:49:34.492Z,27.00
2023-03-16T02:52:04.486Z,27.10
2023-03-16T02:54:32.521Z,27.10
2023-03-16T02:57:00.065Z,27.20
2023-03-16T02:59:29.828Z,27.30
2023-03-16T03:01:57.414Z,27.30
2023-03-16T03:04:24.991Z,27.40
2023-03-16T03:06:55.011Z,27.40
2023-03-16T03:09:22.667Z,27.50
2023-03-16T03:11:50.264Z,27.60
2023-03-16T03:14:18.924Z,27.60
2023-03-16T03:16:46.880Z,27.70
2023-03-16T03:19:14.900Z,27.70
2023-03-16T03:21:44.791Z,27.80
2023-03-16T03:24:12.535Z,27.90
2023-03-16T03:26:40.073Z,28.00
2023-03-16T03:29:09.828Z,28.00
2023-03-16T03:31:37.436Z,28.10
2023-03-16T03:34:05.029Z,28.10
2023-03-16T03:36:34.784Z,28.20
2023-03-16T03:39:02.468Z,28.10
2023-03-16T03:41:30.157Z,28.20
2023-03-16T03:43:59.859Z,28.20
2023-03-16T03:46:27.632Z,28.20
2023-03-16T03:48:55.293Z,28.30
2023-03-16T03:51:25.000Z,28.30
2023-03-16T03:53:52.663Z,28.30
2023-03-16T03:56:21.328Z,28.40
2023-03-16T03:58:51.148Z,28.50
2023-03-16T04:01:18.753Z,28.60
2023-03-16T04:03:46.430Z,28.60
2023-03-16T04:06:16.186Z,28.60
2023-03-16T04:08:43.962Z,28.70
2023-03-16T04:11:11.472Z,28.70
2023-03-16T04:13:41.254Z,28.80
2023-03-16T04:16:08.995Z,28.80
2023-03-16T04:18:56.780Z,28.90
2023-03-16T04:21:24.703Z,29.20
2023-03-16T04:23:52.367Z,29.10
2023-03-16T04:26:22.312Z,29.00
2023-03-16T04:28:49.977Z,29.10
2023-03-16T04:31:17.580Z,29.20
2023-03-16T04:33:47.482Z,29.20
2023-03-16T04:36:15.258Z,29.30
2023-03-16T04:38:42.862Z,29.60
2023-03-16T04:41:12.808Z,29.80
2023-03-16T04:43:40.477Z,29.80
2023-03-16T04:46:08.150Z,29.80
2023-03-16T04:48:38.194Z,29.70
2023-03-16T04:51:05.934Z,29.70
2023-03-16T04:53:33.743Z,29.70
2023-03-16T04:56:01.808Z,29.80
2023-03-16T04:58:29.527Z,29.90
2023-03-16T05:00:57.084Z,30.10
2023-03-16T05:03:29.994Z,30.20
2023-03-16T05:05:57.665Z,30.20
2023-03-16T05:08:25.384Z,30.30
2023-03-16T05:10:55.382Z,30.30
2023-03-16T05:13:23.631Z,30.30
2023-03-16T05:15:51.200Z,30.40
2023-03-16T05:18:18.903Z,30.30
2023-03-16T05:20:46.533Z,30.30
2023-03-16T05:23:15.968Z,30.30
2023-03-16T05:25:45.012Z,30.40
2023-03-16T05:28:14.464Z,30.50
2023-03-16T05:30:42.055Z,30.60
2023-03-16T05:33:10.884Z,30.70
2023-03-16T05:35:38.824Z,30.70
2023-03-16T05:38:06.575Z,30.60
2023-03-16T05:40:36.991Z,30.70
2023-03-16T05:43:04.882Z,30.70
2023-03-16T05:45:32.410Z,30.80
2023-03-16T05:48:00.161Z,31.10
2023-03-16T05:50:28.199Z,31.20
2023-03-16T05:52:55.845Z,31.10
2023-03-16T05:55:25.811Z,31.20
2023-03-16T05:57:53.467Z,31.20
2023-03-16T06:00:21.070Z,31.10
2023-03-16T06:02:48.771Z,31.10
2023-03-16T06:05:16.440Z,31.10
2023-03-16T06:07:43.965Z,31.10
2023-03-16T06:10:14.037Z,31.10
2023-03-16T06:12:41.827Z,31.20
2023-03-16T06:15:09.568Z,31.20
2023-03-16T06:17:39.509Z,31.20
2023-03-16T06:20:07.438Z,31.20
2023-03-16T06:22:35.018Z,31.20
2023-03-16T06:25:05.010Z,31.30
2023-03-16T06:27:34.085Z,31.40
2023-03-16T06:30:01.686Z,31.40
2023-03-16T06:32:31.627Z,31.40
2023-03-16T06:35:01.706Z,31.60
2023-03-16T06:37:29.592Z,31.60
2023-03-16T06:39:57.140Z,31.70
2023-03-16T06:42:27.434Z,31.70
2023-03-16T06:44:55.202Z,31.70
2023-03-16T06:47:22.833Z,31.70
2023-03-16T06:49:52.915Z,31.80
2023-03-16T06:52:20.485Z,31.80
2023-03-16T06:54:48.076Z,31.90
2023-03-16T06:57:18.331Z,32.00
2023-03-16T06:59:45.938Z,32.00
2023-03-16T07:02:13.623Z,31.90
2023-03-16T07:04:43.601Z,32.10
2023-03-16T07:07:11.158Z,32.10
2023-03-16T07:09:41.135Z,32.10
2023-03-16T07:12:12.122Z,32.20
2023-03-16T07:14:39.712Z,32.20
2023-03-16T07:17:07.288Z,32.20
2023-03-16T07:19:37.707Z,32.10
2023-03-16T07:22:05.289Z,32.10
2023-03-16T07:24:32.925Z,32.10
2023-03-16T07:27:02.485Z,32.10
2023-03-16T07:29:30.012Z,32.30
2023-03-16T07:31:57.666Z,32.20
2023-03-16T07:34:28.034Z,32.20
2023-03-16T07:36:55.599Z,32.30
2023-03-16T07:39:23.155Z,32.40
2023-03-16T07:41:53.319Z,32.30
2023-03-16T07:44:20.934Z,32.20
2023-03-16T07:46:48.523Z,32.20
2023-03-16T07:49:18.309Z,32.20
2023-03-16T07:51:45.882Z,32.30
2023-03-16T07:54:13.544Z,32.20
2023-03-16T07:56:49.217Z,32.20
2023-03-16T07:59:18.291Z,32.20
2023-03-16T08:01:49.595Z,32.20
2023-03-16T08:04:17.207Z,32.20
2023-03-16T08:06:44.794Z,32.10
2023-03-16T08:09:14.999Z,32.10
2023-03-16T08:11:42.583Z,32.10
2023-03-16T08:14:10.180Z,32.10
2023-03-16T08:16:40.146Z,32.10
2023-03-16T08:19:07.687Z,32.20
2023-03-16T08:21:45.455Z,32.10
2023-03-16T08:24:23.477Z,32.10
2023-03-16T08:26:51.061Z,32.20
2023-03-16T08:29:18.657Z,32.30
2023-03-16T08:31:49.102Z,32.20
2023-03-16T08:34:16.714Z,32.20
2023-03-16T08:36:45.472Z,32.30
2023-03-16T08:39:15.441Z,32.20
2023-03-16T08:41:42.997Z,32.20
2023-03-16T08:44:10.588Z,32.20
2023-03-16T08:46:40.630Z,32.20
2023-03-16T08:49:08.226Z,32.30
2023-03-16T08:51:35.823Z,32.30
2023-03-16T08:54:05.557Z,32.30
2023-03-16T08:56:33.096Z,32.30
2023-03-16T08:59:00.711Z,32.20
2023-03-16T09:01:28.805Z,32.20
2023-03-16T09:03:56.416Z,32.20
2023-03-16T09:06:23.903Z,32.20
2023-03-16T09:08:54.215Z,32.10
2023-03-16T09:11:21.825Z,32.10
2023-03-16T09:13:51.158Z,32.10
2023-03-16T09:16:22.795Z,32.00
2023-03-16T09:18:50.432Z,32.00
2023-03-16T09:21:18.053Z,31.90
2023-03-16T09:23:46.789Z,31.90
2023-03-16T09:26:14.717Z,32.00
2023-03-16T09:28:42.412Z,31.90
2023-03-16T09:31:12.360Z,31.80
2023-03-16T09:33:39.969Z,31.80
2023-03-16T09:36:07.561Z,31.80
2023-03-16T09:38:35.973Z,31.80
2023-03-16T09:41:03.523Z,31.80
2023-03-16T09:43:31.286Z,31.80
2023-03-16T09:45:59.231Z,31.70
2023-03-16T09:48:26.832Z,31.70
2023-03-16T09:50:54.820Z,31.70
2023-03-16T09:53:25.302Z,31.70
2023-03-16T09:55:54.750Z,31.70
2023-03-16T09:58:22.562Z,31.60
2023-03-16T10:00:52.532Z,31.60
2023-03-16T10:03:20.088Z,31.60
2023-03-16T10:05:47.643Z,31.60
2023-03-16T10:08:18.381Z,31.50
2023-03-16T10:10:46.003Z,31.50
2023-03-16T10:13:13.573Z,31.50
2023-03-16T10:15:43.793Z,31.50
2023-03-16T10:18:13.336Z,31.40
2023-03-16T10:20:41.255Z,31.40
2023-03-16T10:23:09.177Z,31.40
2023-03-16T10:25:36.706Z,31.40
2023-03-16T10:28:04.381Z,31.40
2023-03-16T10:30:34.154Z,31.30
2023-03-16T10:33:01.806Z,31.30
2023-03-16T10:35:29.763Z,31.20
2023-03-16T10:38:00.010Z,31.20
2023-03-16T10:40:27.905Z,31.20
2023-03-16T10:42:55.760Z,31.10
2023-03-16T10:45:25.627Z,31.10
2023-03-16T10:47:53.181Z,31.10
2023-03-16T10:50:21.148Z,31.00
2023-03-16T10:52:51.118Z,31.00
2023-03-16T10:55:18.722Z,31.00
2023-03-16T10:57:46.408Z,30.90
2023-03-16T11:00:16.212Z,30.90
2023-03-16T11:02:43.761Z,30.80
2023-03-16T11:05:11.747Z,30.80
2023-03-16T11:07:39.578Z,30.70
2023-03-16T11:10:07.187Z,30.70
2023-03-16T11:12:34.784Z,30.60
2023-03-16T11:15:07.507Z,30.60
2023-03-16T11:17:36.919Z,30.60
2023-03-16T11:20:04.507Z,30.50
2023-03-16T11:22:34.450Z,30.40
2023-03-16T11:25:02.322Z,30.40
2023-03-16T11:27:29.912Z,30.40
2023-03-16T11:29:59.769Z,30.40
2023-03-16T11:32:27.443Z,30.30
2023-03-16T11:34:55.058Z,30.20
2023-03-16T11:37:24.502Z,30.20
2023-03-16T11:39:52.270Z,30.20
2023-03-16T11:42:19.834Z,30.10
2023-03-16T11:44:50.687Z,30.10
2023-03-16T11:47:19.042Z,30.10
2023-03-16T11:49:46.631Z,30.10
2023-03-16T11:52:16.559Z,30.00
2023-03-16T11:54:44.285Z,30.00
2023-03-16T11:57:14.648Z,29.90
2023-03-16T11:59:51.829Z,29.90
2023-03-16T12:07:46.994Z,29.80
2023-03-16T12:10:20.457Z,29.80
2023-03-16T12:15:38.050Z,29.70
2023-03-16T12:20:58.015Z,29.70
2023-03-16T12:23:29.068Z,29.60
2023-03-16T12:34:22.785Z,29.50
2023-03-16T12:36:59.008Z,29.50
2023-03-16T12:39:38.709Z,29.50
2023-03-16T12:44:48.343Z,29.40
2023-03-16T12:47:20.173Z,29.40
2023-03-16T12:49:54.491Z,29.40
2023-03-16T12:52:36.385Z,29.40
2023-03-16T12:55:04.972Z,29.30
2023-03-16T12:57:35.885Z,29.30
2023-03-16T13:00:05.352Z,29.30
2023-03-16T13:02:33.330Z,29.20
2023-03-16T13:05:06.063Z,29.20
2023-03-16T13:07:33.842Z,29.20
2023-03-16T13:10:04.227Z,29.10
2023-03-16T13:12:40.722Z,29.10
2023-03-16T13:17:59.850Z,29.10
2023-03-16T13:20:31.076Z,29.10
2023-03-16T13:23:02.170Z,29.00
2023-03-16T13:25:32.469Z,29.00
2023-03-16T13:28:00.002Z,29.00
2023-03-16T13:30:31.575Z,29.00
2023-03-16T13:32:59.407Z,28.90
2023-03-16T13:35:26.993Z,28.90
2023-03-16T13:37:54.836Z,28.90
2023-03-16T13:40:22.527Z,28.90
2023-03-16T13:42:50.066Z,28.90
2023-03-16T13:45:20.256Z,28.80
2023-03-16T13:47:47.908Z,28.80
2023-03-16T13:50:15.486Z,28.80
2023-03-16T13:52:45.626Z,28.80
2023-03-16T13:55:13.218Z,28.80
2023-03-16T13:57:40.857Z,28.70
2023-03-16T14:00:11.221Z,28.70
2023-03-16T14:02:38.832Z,28.60
2023-03-16T14:05:06.403Z,28.60
2023-03-16T14:07:36.917Z,28.60
2023-03-16T14:10:04.625Z,28.50
2023-03-16T14:12:32.465Z,28.50
2023-03-16T14:15:02.040Z,28.40
2023-03-16T14:17:29.671Z,28.50
2023-03-16T14:19:57.231Z,28.50
2023-03-16T14:22:25.136Z,28.40
2023-03-16T14:24:52.809Z,28.40
2023-03-16T14:27:20.376Z,28.40
2023-03-16T14:29:50.567Z,28.40
2023-03-16T14:32:18.336Z,28.40
2023-03-16T14:34:46.033Z,28.40
2023-03-16T14:37:13.977Z,28.30
2023-03-16T14:39:41.822Z,28.30
2023-03-16T14:42:09.367Z,28.30
2023-03-16T14:44:37.806Z,28.30
2023-03-16T14:47:05.596Z,28.20
2023-03-16T14:49:33.607Z,28.20
2023-03-16T14:52:01.622Z,28.10
2023-03-16T14:54:29.369Z,28.10
2023-03-16T14:56:56.868Z,28.10
2023-03-16T14:59:27.013Z,28.10
2023-03-16T15:01:54.965Z,28.00
2023-03-16T15:04:22.643Z,28.00
2023-03-16T15:07:12.840Z,28.00
2023-03-16T15:09:40.749Z,28.00
2023-03-16T15:12:08.351Z,28.00
2023-03-16T15:14:39.277Z,27.90
2023-03-16T15:17:06.796Z,27.90
2023-03-16T15:19:34.290Z,28.00
2023-03-16T15:22:02.168Z,27.90
2023-03-16T15:24:29.788Z,27.90
2023-03-16T15:27:00.324Z,27.80
2023-03-16T15:29:30.881Z,27.80
2023-03-16T15:31:58.470Z,27.80
2023-03-16T15:34:26.791Z,27.80
2023-03-16T15:36:56.902Z,27.70
2023-03-16T15:39:26.731Z,27.70
2023-03-16T15:41:54.467Z,27.70
2023-03-16T15:44:22.292Z,27.70
2023-03-16T15:46:52.283Z,27.60
2023-03-16T15:49:20.381Z,27.50
2023-03-16T15:51:47.953Z,27.50
2023-03-16T15:54:17.710Z,27.50
2023-03-16T15:56:53.737Z,27.50
2023-03-16T15:59:24.308Z,27.50
2023-03-16T16:01:52.128Z,27.50
2023-03-16T16:04:19.972Z,27.50
2023-03-16T16:06:48.857Z,27.40
2023-03-16T16:09:16.669Z,27.50
2023-03-16T16:11:44.227Z,27.50
2023-03-16T16:14:13.988Z,27.40
2023-03-16T16:16:41.609Z,27.40
2023-03-16T16:19:09.173Z,27.30
2023-03-16T16:21:38.948Z,27.20
2023-03-16T16:24:06.609Z,27.30
2023-03-16T16:26:56.313Z,27.20
2023-03-16T16:29:24.212Z,27.20
2023-03-16T16:31:52.120Z,27.20
2023-03-16T16:34:22.704Z,27.20
2023-03-16T16:36:53.528Z,27.10
2023-03-16T16:39:21.144Z,27.20
2023-03-16T16:41:48.716Z,27.20
2023-03-16T16:44:18.705Z,27.10
2023-03-16T16:46:46.324Z,27.10
2023-03-16T16:49:13.916Z,27.10
2023-03-16T16:51:43.808Z,27.10
2023-03-16T16:54:12.981Z,27.00
2023-03-16T16:56:43.358Z,27.00
2023-03-16T16:59:13.381Z,27.00
2023-03-16T17:01:41.227Z,26.90
2023-03-16T17:04:08.837Z,26.90
2023-03-16T17:06:38.747Z,26.80
2023-03-16T17:09:06.426Z,26.80
2023-03-16T17:11:33.946Z,26.70
2023-03-16T17:14:03.829Z,26.80
2023-03-16T17:16:31.593Z,26.80
2023-03-16T17:18:59.191Z,26.70
2023-03-16T17:21:28.950Z,26.70
2023-03-16T17:23:56.600Z,26.70
2023-03-16T17:26:24.146Z,26.60
2023-03-16T17:28:54.069Z,26.70
2023-03-16T17:31:21.707Z,26.70
2023-03-16T17:33:49.258Z,26.60
2023-03-16T17:36:18.962Z,26.60
2023-03-16T17:38:46.538Z,26.60
2023-03-16T17:41:14.101Z,26.60
2023-03-16T17:43:41.782Z,26.60
2023-03-16T17:46:09.455Z,26.60
2023-03-16T17:48:37.122Z,26.50
2023-03-16T17:51:05.835Z,26.50
2023-03-16T17:53:33.415Z,26.50
2023-03-16T17:56:01.004Z,26.40
2023-03-16T17:58:30.767Z,26.40
2023-03-16T18:00:58.306Z,26.40
2023-03-16T18:03:29.349Z,26.40
2023-03-16T18:06:01.578Z,26.40
2023-03-16T18:08:33.622Z,26.30
2023-03-16T18:11:05.012Z,26.30
2023-03-16T18:13:33.588Z,26.30
2023-03-16T18:16:02.387Z,26.30
2023-03-16T18:18:32.996Z,26.30
2023-03-16T18:21:00.651Z,26.30
2023-03-16T18:23:29.205Z,26.30
2023-03-16T18:25:58.869Z,26.30
2023-03-16T18:28:26.489Z,26.20
2023-03-16T18:30:54.131Z,26.20
2023-03-16T18:33:24.048Z,26.20
2023-03-16T18:35:51.649Z,26.20
2023-03-16T18:38:19.286Z,26.10
2023-03-16T18:40:49.031Z,26.10
2023-03-16T18:43:16.591Z,26.10
2023-03-16T18:45:44.746Z,26.10
2023-03-16T18:48:14.633Z,26.20
2023-03-16T18:50:42.325Z,26.10
2023-03-16T18:53:10.478Z,26.10
2023-03-16T18:55:40.337Z,26.10
2023-03-16T18:58:07.868Z,26.10
2023-03-16T19:00:37.630Z,26.10
2023-03-16T19:03:07.573Z,26.00
2023-03-16T19:05:35.138Z,26.00
2023-03-16T19:08:02.710Z,26.00
2023-03-16T19:10:31.668Z,26.10
2023-03-16T19:12:59.297Z,26.10
2023-03-16T19:15:26.867Z,26.10
2023-03-16T19:17:56.712Z,26.20
2023-03-16T19:20:24.272Z,26.20
2023-03-16T19:22:51.842Z,26.20
2023-03-16T19:25:21.357Z,26.20
2023-03-16T19:27:48.959Z,26.10
2023-03-16T19:30:19.456Z,26.10
2023-03-16T19:32:49.605Z,26.10
2023-03-16T19:35:17.232Z,26.10
2023-03-16T19:37:44.800Z,26.10
2023-03-16T19:40:14.540Z,26.10
2023-03-16T19:42:43.155Z,26.10
2023-03-16T19:45:10.704Z,26.00
2023-03-16T19:47:40.504Z,26.10
2023-03-16T19:50:08.075Z,26.00
2023-03-16T19:52:35.643Z,26.00
2023-03-16T19:55:05.392Z,26.00
2023-03-16T19:57:33.034Z,26.00
2023-03-16T20:00:00.613Z,26.00
2023-03-16T20:02:30.427Z,25.90
2023-03-16T20:04:58.006Z,25.90
2023-03-16T20:07:25.578Z,25.90
2023-03-16T20:09:55.392Z,25.90
2023-03-16T20:12:23.041Z,25.90
2023-03-16T20:14:50.615Z,25.90
2023-03-16T20:17:18.892Z,25.90
2023-03-16T20:19:47.087Z,25.90
2023-03-16T20:22:31.456Z,25.80
2023-03-16T20:24:59.375Z,25.90
2023-03-16T20:27:27.070Z,25.90
2023-03-16T20:32:35.502Z,25.80
2023-03-16T20:35:12.628Z,25.80
2023-03-16T20:37:40.589Z,25.80
2023-03-16T20:40:12.401Z,25.80
2023-03-16T20:42:43.314Z,25.70
2023-03-16T20:45:15.267Z,25.70
2023-03-16T20:47:48.100Z,25.70
2023-03-16T20:50:16.424Z,25.70
2023-03-16T20:52:44.056Z,25.70
2023-03-16T20:55:13.911Z,25.70
2023-03-16T20:57:43.285Z,25.70
2023-03-16T21:00:10.859Z,25.60
2023-03-16T21:02:40.785Z,25.60
2023-03-16T21:05:08.556Z,25.60
2023-03-16T21:07:41.604Z,25.60
2023-03-16T21:10:11.499Z,25.50
2023-03-16T21:12:39.060Z,25.50
2023-03-16T21:15:06.585Z,25.50
2023-03-16T21:17:37.539Z,25.50
2023-03-16T21:20:05.124Z,25.50
2023-03-16T21:22:33.104Z,25.50
2023-03-16T21:25:02.990Z,25.40
2023-03-16T21:27:30.820Z,25.40
2023-03-16T21:29:58.848Z,25.40
2023-03-16T21:32:29.856Z,25.40
2023-03-16T21:34:58.162Z,25.30
2023-03-16T21:37:28.526Z,25.30
2023-03-16T21:40:06.288Z,25.30
2023-03-16T21:42:37.427Z,25.20
2023-03-16T21:45:08.200Z,25.30
2023-03-16T21:47:35.929Z,25.20
2023-03-16T21:50:06.544Z,25.20
2023-03-16T21:52:37.321Z,25.20
2023-03-16T21:55:04.886Z,25.20
2023-03-16T21:57:32.989Z,25.20
2023-03-16T22:00:03.032Z,25.10
2023-03-16T22:02:33.775Z,25.10
2023-03-16T22:05:12.409Z,25.10
2023-03-16T22:07:40.189Z,25.10
2023-03-16T22:10:08.497Z,25.10
2023-03-16T22:12:39.564Z,25.10
2023-03-16T22:15:07.348Z,25.10
2023-03-16T22:17:38.823Z,25.10
2023-03-16T22:20:08.573Z,25.10
2023-03-16T22:22:42.727Z,25.00
2023-03-16T22:25:12.721Z,25.10
2023-03-16T22:27:42.688Z,25.00
2023-03-16T22:30:10.951Z,25.00
2023-03-16T22:32:41.751Z,25.00
2023-03-16T22:35:11.210Z,25.00
2023-03-16T22:37:39.822Z,25.00
2023-03-16T22:40:15.327Z,24.90
2023-03-16T22:42:43.790Z,24.90
2023-03-16T22:45:13.220Z,24.90
2023-03-16T22:47:57.442Z,24.90
2023-03-16T22:50:29.624Z,24.80
2023-03-16T22:52:57.365Z,24.90
2023-03-16T22:55:29.278Z,24.90
2023-03-16T22:57:57.551Z,24.90
2023-03-16T23:00:26.116Z,24.90
2023-03-16T23:02:54.584Z,24.80
2023-03-16T23:05:26.482Z,24.80
2023-03-16T23:07:57.746Z,24.80
2023-03-16T23:10:51.493Z,24.80
2023-03-16T23:13:19.653Z,24.80
2023-03-16T23:15:48.677Z,24.80
2023-03-16T23:18:24.438Z,24.80
2023-03-16T23:20:52.366Z,24.80
2023-03-16T23:23:23.297Z,24.80
2023-03-16T23:25:54.443Z,24.80
2023-03-16T23:28:22.044Z,24.80
2023-03-16T23:30:52.591Z,24.70
2023-03-16T23:33:25.157Z,24.80
2023-03-16T23:35:56.091Z,24.80
2023-03-16T23:38:24.339Z,24.80
2023-03-16T23:40:54.084Z,24.80
2023-03-16T23:43:21.748Z,24.90
2023-03-16T23:45:49.379Z,24.90
2023-03-16T23:48:19.814Z,24.90
2023-03-16T23:50:47.600Z,24.90
2023-03-16T23:53:15.252Z,24.90
2023-03-16T23:55:45.232Z,24.90
2023-03-16T23:58:12.931Z,24.90
